Main page
METAR-TAF:

METAR-TAF

Airports :

Oil platform

K14-fa-1c, Netherlands

latitude: 53-16-10N, longitude: 3-37-40E, elevation: 28 m

Current weather observation

The report was made 41 minutes ago, at 21:55 UTC
Wind 33 kt from the West, varying between West/Southwest and North/Northwest
Temperature 14°C
Humidity 72%
Pressure 1012 hPa
Visibility 10 km or more
Few clouds at a height of 1900 ft, Cumulonimbus.
Scattered clouds at a height of 2900 ft
Broken clouds at a height of 4700 ft

METAR: EHKV 212155Z AUTO 28033KT 250V340 9999 FEW019CB SCT029 BKN047 14/09 Q1012 W///H///

Time: 00:36 (22:36 UTC)


TAF: missing

Weather observations and forecasts of more than 4000 airports (METAR and TAF reports).

The available stations are represented by yellow and red dots on the map.

Hover mouse over dot to see the name of the station.

Then click to see weather observations and forecasts.

To change the map : click on the green buttons with a black cross to zoom in, on the green button with a dash to zoom out, or on the green arrows for adjacent maps.


METAR-TAF: